Time;durP1;ratioP1;P1;durP2;ratioP2;P2;SDS_P1;SDS_P2;PMS_P1;PMS_P2;Temp;Humidity;BMP_temperature;BMP_pressure;BME280_temperature;BME280_humidity;BME280_pressure;Samples;Min_cycle;Max_cycle;Signal;HPM_P1;HPM_P2
2022/03/24 00:01:53;;;;;;;46.67;21.83;;;4.60;99.90;;;;;;5045465;28;20049;-68
2022/03/24 00:04:18;;;;;;;44.85;20.63;;;4.60;99.90;;;;;;5044265;28;20045;-68
2022/03/24 00:06:44;;;;;;;45.45;22.30;;;4.60;99.90;;;;;;5045610;28;20438;-68
2022/03/24 00:09:10;;;;;;;41.60;20.48;;;4.60;99.90;;;;;;5044531;28;20072;-68
2022/03/24 00:11:35;;;;;;;34.75;17.75;;;4.60;99.90;;;;;;5048334;28;20368;-68
2022/03/24 00:14:01;;;;;;;32.35;17.20;;;4.60;99.90;;;;;;5049236;28;20144;-68
2022/03/24 00:16:26;;;;;;;32.53;16.98;;;4.50;99.90;;;;;;5049055;28;20044;-68
2022/03/24 00:18:52;;;;;;;42.63;19.85;;;4.50;99.90;;;;;;5027919;28;20124;-68
2022/03/24 00:21:18;;;;;;;38.55;19.30;;;4.50;99.90;;;;;;5061800;28;20045;-68
2022/03/24 00:23:44;;;;;;;39.47;19.20;;;4.50;99.90;;;;;;5026494;28;20043;-68
2022/03/24 00:26:09;;;;;;;43.22;19.67;;;4.50;99.90;;;;;;5045722;28;20037;-68
2022/03/24 00:28:35;;;;;;;42.28;19.70;;;4.50;99.90;;;;;;5041887;28;20123;-68
2022/03/24 00:31:01;;;;;;;35.47;17.75;;;4.40;99.90;;;;;;5044670;28;20047;-68
2022/03/24 00:33:28;;;;;;;38.88;19.50;;;4.40;99.90;;;;;;5043733;28;20045;-68
2022/03/24 00:35:54;;;;;;;47.92;21.25;;;4.40;99.90;;;;;;5060949;28;20045;-68
2022/03/24 00:38:19;;;;;;;41.03;20.70;;;4.30;99.90;;;;;;5054482;28;20106;-68
2022/03/24 00:40:45;;;;;;;47.75;22.85;;;4.40;99.90;;;;;;5053620;28;20594;-68
2022/03/24 00:43:12;;;;;;;50.08;23.63;;;4.30;99.90;;;;;;5052881;28;20101;-68
2022/03/24 00:45:40;;;;;;;47.60;22.40;;;4.30;99.90;;;;;;5064212;28;20033;-68
2022/03/24 00:48:06;;;;;;;43.17;21.90;;;4.30;99.90;;;;;;5047840;28;20090;-68
2022/03/24 00:50:32;;;;;;;43.38;21.45;;;4.30;99.90;;;;;;5052858;28;20503;-68
2022/03/24 00:52:57;;;;;;;45.70;20.75;;;4.30;99.90;;;;;;5044000;28;20053;-68
2022/03/24 00:55:23;;;;;;;50.22;21.88;;;4.20;99.90;;;;;;5052058;28;20067;-68
2022/03/24 00:57:50;;;;;;;39.38;20.15;;;4.20;99.90;;;;;;5055076;28;20040;-68
2022/03/24 01:00:20;;;;;;;46.20;20.40;;;4.20;99.90;;;;;;5046967;28;20053;-68
2022/03/24 01:02:48;;;;;;;39.47;19.30;;;4.20;99.90;;;;;;5051248;28;20503;-68
2022/03/24 01:05:15;;;;;;;41.95;20.30;;;4.10;99.90;;;;;;5054398;28;20044;-68
2022/03/24 01:07:42;;;;;;;37.10;18.85;;;4.10;99.90;;;;;;5068144;28;20052;-68
2022/03/24 01:10:09;;;;;;;36.33;17.95;;;4.00;99.90;;;;;;5053755;28;20082;-68
2022/03/24 01:12:35;;;;;;;34.83;17.65;;;3.90;99.90;;;;;;5054444;28;20159;-68
2022/03/24 01:15:05;;;;;;;34.20;17.67;;;3.90;99.90;;;;;;5053686;28;20127;-68
2022/03/24 01:17:31;;;;;;;40.97;21.23;;;3.90;99.90;;;;;;5051586;28;20052;-68
2022/03/24 01:19:57;;;;;;;49.17;23.45;;;3.90;99.90;;;;;;5040559;28;20068;-68
2022/03/24 01:22:23;;;;;;;50.60;22.95;;;3.90;99.90;;;;;;5069103;28;20496;-68
2022/03/24 01:24:49;;;;;;;43.05;23.63;;;3.90;99.90;;;;;;5054205;28;20041;-68
2022/03/24 01:27:15;;;;;;;43.45;21.80;;;3.90;99.90;;;;;;5054239;28;20041;-68
2022/03/24 01:29:41;;;;;;;52.22;24.42;;;3.90;99.90;;;;;;5050413;28;20037;-68
2022/03/24 01:32:07;;;;;;;52.67;25.05;;;4.00;99.90;;;;;;5053057;28;20072;-68
2022/03/24 01:34:39;;;;;;;50.67;24.15;;;3.90;99.90;;;;;;5046674;28;20511;-68
2022/03/24 01:37:08;;;;;;;48.67;24.27;;;4.00;99.90;;;;;;5052957;28;20045;-68
2022/03/24 01:39:33;;;;;;;49.85;23.45;;;3.90;99.90;;;;;;5054243;28;20183;-68
2022/03/24 01:42:00;;;;;;;48.58;23.55;;;3.90;99.90;;;;;;5052147;28;20119;-68
2022/03/24 01:44:27;;;;;;;50.83;24.80;;;3.90;99.90;;;;;;5052512;28;20060;-68
2022/03/24 01:47:07;;;;;;;48.38;21.73;;;3.90;99.90;;;;;;5050026;28;20056;-68
2022/03/24 01:49:42;;;;;;;44.85;22.40;;;3.90;99.90;;;;;;5045617;28;20049;-68
2022/03/24 01:52:11;;;;;;;48.72;22.83;;;3.90;99.90;;;;;;5046822;28;20033;-68
2022/03/24 01:54:42;;;;;;;49.70;24.13;;;3.90;99.90;;;;;;5042249;28;20081;-68
2022/03/24 01:57:10;;;;;;;51.97;22.80;;;3.90;99.90;;;;;;5049587;28;20127;-68
2022/03/24 01:59:37;;;;;;;48.75;23.65;;;3.80;99.90;;;;;;5050039;28;20774;-68
2022/03/24 02:02:04;;;;;;;34.97;16.42;;;3.80;99.90;;;;;;5062085;28;20040;-68
2022/03/24 02:04:36;;;;;;;36.13;16.67;;;3.70;99.90;;;;;;5049792;28;20045;-68
2022/03/24 02:07:02;;;;;;;36.67;17.67;;;3.50;99.90;;;;;;5049636;28;20492;-68
2022/03/24 02:09:28;;;;;;;50.42;23.17;;;3.30;99.90;;;;;;5049786;28;20131;-68
2022/03/24 02:11:54;;;;;;;46.78;21.25;;;3.30;99.90;;;;;;5047998;28;20120;-68
2022/03/24 02:14:20;;;;;;;47.58;22.98;;;3.20;99.90;;;;;;5046564;28;20041;-68
2022/03/24 02:16:48;;;;;;;51.05;23.50;;;3.20;99.90;;;;;;5049467;28;20391;-68
2022/03/24 02:19:21;;;;;;;45.45;20.45;;;3.20;99.90;;;;;;5043816;28;20041;-69
2022/03/24 02:21:48;;;;;;;46.85;22.20;;;3.10;99.90;;;;;;5046917;28;20117;-69
2022/03/24 02:24:16;;;;;;;54.58;24.90;;;3.10;99.90;;;;;;5049082;28;20483;-69
2022/03/24 02:26:44;;;;;;;49.42;23.58;;;3.00;99.90;;;;;;5048620;28;20068;-68
2022/03/24 02:29:11;;;;;;;53.55;24.98;;;3.00;99.90;;;;;;5047338;28;20033;-68
2022/03/24 02:31:39;;;;;;;62.92;26.30;;;3.10;99.90;;;;;;5048472;28;20380;-69
2022/03/24 02:36:59;;;;;;;54.28;24.85;;;3.10;99.90;;;;;;5049183;28;20098;-69
2022/03/24 02:39:25;;;;;;;58.35;26.70;;;3.20;99.90;;;;;;5061577;28;20059;-68
2022/03/24 02:41:56;;;;;;;60.78;27.63;;;3.20;99.90;;;;;;5069670;28;20448;-68
2022/03/24 02:44:25;;;;;;;59.88;28.10;;;3.30;99.90;;;;;;5070511;28;20131;-68
2022/03/24 02:46:53;;;;;;;58.60;27.45;;;3.30;99.90;;;;;;5055236;28;20079;-68
2022/03/24 02:49:22;;;;;;;44.13;22.23;;;3.20;99.90;;;;;;5048747;28;20086;-68
2022/03/24 02:51:50;;;;;;;42.03;19.98;;;3.20;99.90;;;;;;5056259;28;20080;-68
2022/03/24 02:54:16;;;;;;;36.50;19.27;;;3.10;99.90;;;;;;5048707;28;20045;-69
2022/03/24 02:56:42;;;;;;;40.50;21.05;;;3.10;99.90;;;;;;5050037;28;20406;-69
2022/03/24 02:59:08;;;;;;;45.13;21.65;;;3.00;99.90;;;;;;5049122;28;20045;-69
2022/03/24 03:01:34;;;;;;;44.80;21.73;;;3.00;99.90;;;;;;5045693;28;20088;-69
2022/03/24 03:04:00;;;;;;;34.85;17.40;;;2.90;99.90;;;;;;5048603;28;20076;-69
2022/03/24 03:06:26;;;;;;;32.20;16.15;;;2.80;99.90;;;;;;5049834;28;20094;-69
2022/03/24 03:08:52;;;;;;;33.42;17.70;;;2.70;99.90;;;;;;5049018;28;20446;-68
2022/03/24 03:11:22;;;;;;;35.97;18.17;;;2.60;99.90;;;;;;5049078;28;20271;-69
2022/03/24 03:13:48;;;;;;;42.78;21.23;;;2.50;99.90;;;;;;5050568;28;20041;-69
2022/03/24 03:16:13;;;;;;;40.58;19.88;;;2.50;99.90;;;;;;5051791;28;20477;-69
2022/03/24 03:18:41;;;;;;;45.83;22.20;;;2.40;99.90;;;;;;5046375;28;20056;-69
2022/03/24 03:21:10;;;;;;;53.85;24.58;;;2.40;99.90;;;;;;5038519;28;20037;-69
2022/03/24 03:23:38;;;;;;;46.10;23.95;;;2.40;99.90;;;;;;5030265;28;20524;-69
2022/03/24 03:26:04;;;;;;;44.63;20.52;;;2.40;99.90;;;;;;5044803;28;20123;-69
2022/03/24 03:28:30;;;;;;;41.67;20.33;;;2.40;99.90;;;;;;5049747;28;20047;-69
2022/03/24 03:30:57;;;;;;;45.50;20.70;;;2.40;99.90;;;;;;5032059;28;20045;-68
2022/03/24 03:33:23;;;;;;;45.33;21.38;;;2.30;99.90;;;;;;5047797;28;20033;-69
2022/03/24 03:35:48;;;;;;;44.83;21.08;;;2.40;99.90;;;;;;5048944;28;20041;-69
2022/03/24 03:38:14;;;;;;;44.05;20.58;;;2.30;99.90;;;;;;5049177;28;20053;-69
2022/03/24 03:40:39;;;;;;;49.28;23.40;;;2.30;99.90;;;;;;5043928;28;20124;-69
2022/03/24 03:43:05;;;;;;;47.63;21.80;;;2.30;99.90;;;;;;5033573;28;20073;-69
2022/03/24 03:45:31;;;;;;;49.35;24.55;;;2.30;99.90;;;;;;5051845;28;20051;-69
2022/03/24 03:47:56;;;;;;;59.33;27.13;;;2.30;99.90;;;;;;5049101;28;20129;-68
2022/03/24 03:50:22;;;;;;;58.83;26.33;;;2.30;99.90;;;;;;5046861;28;20056;-69
2022/03/24 03:52:47;;;;;;;57.53;25.60;;;2.30;99.90;;;;;;5048848;28;20487;-69
2022/03/24 03:55:13;;;;;;;55.13;26.15;;;2.30;99.90;;;;;;5048854;28;20120;-69
2022/03/24 03:57:38;;;;;;;50.42;24.05;;;2.30;99.90;;;;;;5049813;28;20055;-69
2022/03/24 04:02:50;;;;;;;55.20;24.70;;;2.30;99.90;;;;;;5046208;28;20047;-68
2022/03/24 04:05:23;;;;;;;51.63;23.83;;;2.30;99.90;;;;;;5047773;28;20315;-69
2022/03/24 04:07:49;;;;;;;;;;;2.20;99.90;;;;;;5049556;28;20056;-69
2022/03/24 04:10:14;;;;;;;50.42;23.33;;;2.20;99.90;;;;;;5048063;28;20351;-69
2022/03/24 04:12:42;;;;;;;54.20;24.55;;;2.30;99.90;;;;;;5047352;28;20041;-69
2022/03/24 04:15:08;;;;;;;57.25;25.98;;;2.20;99.90;;;;;;5048918;28;20051;-69
2022/03/24 04:17:33;;;;;;;58.08;24.73;;;2.20;99.90;;;;;;5049326;28;20041;-69
2022/03/24 04:19:59;;;;;;;51.88;25.67;;;2.30;99.90;;;;;;5048095;28;20045;-68
2022/03/24 04:22:24;;;;;;;58.95;27.83;;;2.20;99.90;;;;;;5048672;28;20454;-69
2022/03/24 04:24:50;;;;;;;61.00;27.38;;;2.20;99.90;;;;;;5048779;28;20091;-68
2022/03/24 04:27:16;;;;;;;56.92;27.13;;;2.20;99.90;;;;;;5049558;28;20047;-69
2022/03/24 04:29:41;;;;;;;73.25;30.23;;;2.30;99.90;;;;;;5048002;28;20132;-69
2022/03/24 04:32:07;;;;;;;69.72;28.25;;;2.30;99.90;;;;;;5048842;28;20534;-69
2022/03/24 04:34:33;;;;;;;62.72;28.15;;;2.30;99.90;;;;;;5047445;28;20435;-69
2022/03/24 04:36:58;;;;;;;56.40;28.50;;;2.30;99.90;;;;;;5048789;28;20053;-68
2022/03/24 04:39:24;;;;;;;58.28;26.63;;;2.30;99.90;;;;;;5048412;28;20048;-69
2022/03/24 04:41:49;;;;;;;46.20;21.20;;;2.30;99.90;;;;;;5048904;28;20076;-68
2022/03/24 04:44:15;;;;;;;46.92;20.55;;;2.30;99.90;;;;;;5048886;28;20045;-69
2022/03/24 04:46:41;;;;;;;38.75;19.25;;;2.30;99.90;;;;;;5047026;28;20036;-69
2022/03/24 04:49:09;;;;;;;25.85;13.30;;;2.20;99.90;;;;;;5047677;28;20044;-69
2022/03/24 04:51:34;;;;;;;17.42;10.85;;;2.20;99.90;;;;;;5048175;28;20055;-69
2022/03/24 04:54:00;;;;;;;24.75;13.13;;;2.10;99.90;;;;;;5031955;28;20041;-69
2022/03/24 04:56:25;;;;;;;33.80;16.25;;;2.00;99.90;;;;;;5046489;28;20395;-69
2022/03/24 04:58:52;;;;;;;41.47;19.83;;;2.00;99.90;;;;;;5046267;28;20483;-69
2022/03/24 05:01:17;;;;;;;45.60;20.77;;;2.00;99.90;;;;;;5048111;28;20048;-69
2022/03/24 05:03:46;;;;;;;50.22;24.30;;;2.00;99.90;;;;;;5048266;28;20048;-69
2022/03/24 05:06:12;;;;;;;52.15;24.70;;;2.00;99.90;;;;;;5047899;28;20037;-69
2022/03/24 05:08:38;;;;;;;45.80;21.25;;;2.00;99.90;;;;;;5044019;28;20037;-69
2022/03/24 05:11:03;;;;;;;60.13;26.80;;;1.90;99.90;;;;;;5047768;28;20044;-69
2022/03/24 05:13:29;;;;;;;56.90;24.90;;;2.00;99.90;;;;;;5048228;28;20118;-69
2022/03/24 05:15:56;;;;;;;57.95;26.52;;;2.00;99.90;;;;;;5047482;28;20045;-69
2022/03/24 05:18:24;;;;;;;51.10;23.95;;;2.00;99.90;;;;;;5053043;28;20045;-69
2022/03/24 05:20:50;;;;;;;50.65;24.20;;;2.10;99.90;;;;;;5064698;28;20052;-69
2022/03/24 05:23:16;;;;;;;49.88;23.13;;;2.10;99.90;;;;;;5064131;28;20052;-69
2022/03/24 05:25:41;;;;;;;46.88;21.98;;;2.10;99.90;;;;;;5063782;28;20087;-69
2022/03/24 05:28:07;;;;;;;48.00;21.50;;;2.10;99.90;;;;;;5052441;28;20052;-69
2022/03/24 05:30:33;;;;;;;46.50;21.50;;;2.10;99.90;;;;;;5052167;28;20068;-69
2022/03/24 05:32:59;;;;;;;37.17;18.63;;;2.00;99.90;;;;;;5046272;28;20078;-69
2022/03/24 05:35:24;;;;;;;34.80;17.90;;;2.00;99.90;;;;;;5072544;28;20477;-69
2022/03/24 05:37:50;;;;;;;40.13;19.10;;;2.00;99.90;;;;;;5058382;28;20047;-69
2022/03/24 05:40:15;;;;;;;33.53;16.63;;;1.90;99.90;;;;;;5051554;28;20080;-69
2022/03/24 05:42:41;;;;;;;33.75;17.20;;;1.80;99.90;;;;;;5051957;28;20045;-69
2022/03/24 05:45:07;;;;;;;39.67;20.52;;;1.80;99.90;;;;;;5067245;28;20040;-69
2022/03/24 05:47:33;;;;;;;51.70;24.08;;;1.80;99.90;;;;;;5032271;28;20496;-70
2022/03/24 05:49:58;;;;;;;52.63;22.67;;;1.70;99.90;;;;;;5042289;28;20064;-69
2022/03/24 05:52:24;;;;;;;53.78;24.75;;;1.70;99.90;;;;;;5051404;28;20116;-69
2022/03/24 05:54:49;;;;;;;55.78;25.40;;;1.80;99.90;;;;;;5050075;28;20426;-69
2022/03/24 05:57:15;;;;;;;52.80;25.38;;;1.80;99.90;;;;;;5052518;28;20475;-69
2022/03/24 05:59:40;;;;;;;53.72;24.33;;;1.80;99.90;;;;;;5051704;28;20048;-69
2022/03/24 06:02:06;;;;;;;56.08;23.95;;;1.80;99.90;;;;;;5060954;28;20106;-69
2022/03/24 06:04:32;;;;;;;52.53;24.95;;;1.90;99.90;;;;;;5051850;28;20468;-69
2022/03/24 06:06:58;;;;;;;45.90;20.20;;;1.90;99.90;;;;;;5051973;28;20044;-69
2022/03/24 06:09:24;;;;;;;57.38;24.83;;;2.00;99.90;;;;;;5051060;28;20037;-69
2022/03/24 06:11:52;;;;;;;55.90;24.73;;;2.00;99.90;;;;;;5051714;28;20472;-70
2022/03/24 06:14:17;;;;;;;55.13;24.73;;;2.00;99.90;;;;;;5052092;28;20041;-70
2022/03/24 06:16:43;;;;;;;50.63;24.63;;;2.10;99.90;;;;;;5051035;28;20041;-69
2022/03/24 06:19:09;;;;;;;52.70;24.25;;;2.10;99.90;;;;;;5050154;28;20045;-69
2022/03/24 06:21:36;;;;;;;52.85;25.00;;;2.10;99.90;;;;;;5051295;28;20079;-69
2022/03/24 06:24:03;;;;;;;53.50;26.25;;;2.20;99.90;;;;;;5069416;28;20072;-69
2022/03/24 06:26:29;;;;;;;49.05;22.60;;;2.20;99.90;;;;;;5051485;28;20561;-69
2022/03/24 06:28:55;;;;;;;43.33;21.00;;;2.30;99.90;;;;;;5048444;28;20460;-69
2022/03/24 06:31:20;;;;;;;47.40;22.25;;;2.40;99.90;;;;;;5052384;28;20488;-70
2022/03/24 06:33:46;;;;;;;56.05;24.67;;;2.40;99.90;;;;;;5065492;28;20036;-70
2022/03/24 06:36:12;;;;;;;50.97;23.98;;;2.50;99.90;;;;;;5057498;28;20044;-69
2022/03/24 06:38:37;;;;;;;52.00;23.40;;;2.50;99.90;;;;;;5039340;28;20056;-72
2022/03/24 06:41:05;;;;;;;52.75;25.30;;;2.50;99.90;;;;;;5051493;28;20405;-69
2022/03/24 06:43:31;;;;;;;59.72;29.20;;;2.50;99.90;;;;;;5062485;28;20048;-70
2022/03/24 06:45:58;;;;;;;59.38;27.95;;;2.60;99.90;;;;;;5062973;28;20139;-69
2022/03/24 06:48:24;;;;;;;56.97;26.77;;;2.70;99.90;;;;;;5067748;28;20434;-70
2022/03/24 06:50:49;;;;;;;61.88;27.45;;;2.80;99.90;;;;;;5052359;28;20037;-70
2022/03/24 06:53:15;;;;;;;67.90;32.15;;;2.90;99.90;;;;;;5046322;28;20040;-70
2022/03/24 06:55:40;;;;;;;69.40;31.83;;;3.00;99.90;;;;;;5046343;28;20033;-70
2022/03/24 06:58:06;;;;;;;71.90;32.75;;;3.10;99.90;;;;;;5050724;28;20419;-69
2022/03/24 07:00:32;;;;;;;81.90;35.97;;;3.20;99.90;;;;;;5047402;28;20128;-70
2022/03/24 07:02:58;;;;;;;83.50;38.88;;;3.40;99.90;;;;;;5048408;28;20036;-70
2022/03/24 07:05:24;;;;;;;86.03;38.60;;;3.50;99.90;;;;;;5049852;28;20048;-70
2022/03/24 07:07:50;;;;;;;78.78;36.20;;;3.70;99.90;;;;;;5049003;28;20099;-70
2022/03/24 07:10:17;;;;;;;83.22;39.03;;;3.80;99.90;;;;;;5056958;28;20140;-70
2022/03/24 07:12:43;;;;;;;88.10;40.97;;;4.00;99.90;;;;;;5054721;28;20082;-70
2022/03/24 07:15:10;;;;;;;90.65;40.75;;;4.10;99.90;;;;;;5049477;28;20411;-70
2022/03/24 07:17:36;;;;;;;98.10;43.92;;;4.30;99.90;;;;;;5063160;28;20469;-70
2022/03/24 07:20:06;;;;;;;98.97;43.50;;;4.50;99.90;;;;;;5049479;28;20496;-69
2022/03/24 07:22:33;;;;;;;103.05;46.97;;;4.70;99.90;;;;;;5049080;28;20114;-70
2022/03/24 07:24:59;;;;;;;105.53;48.45;;;4.90;99.90;;;;;;5053255;28;20041;-70
2022/03/24 07:27:24;;;;;;;103.60;48.45;;;5.00;99.90;;;;;;5049386;28;20037;-70
2022/03/24 07:29:50;;;;;;;107.72;50.22;;;5.20;99.90;;;;;;5048595;28;20368;-70
2022/03/24 07:32:16;;;;;;;108.82;50.38;;;5.40;99.90;;;;;;5046252;28;20043;-70
2022/03/24 07:34:41;;;;;;;105.80;49.67;;;5.60;99.90;;;;;;5047831;28;20040;-70
2022/03/24 07:37:07;;;;;;;112.72;50.55;;;5.80;99.90;;;;;;5048795;28;20041;-70
2022/03/24 07:39:33;;;;;;;115.57;51.08;;;5.90;99.90;;;;;;5047436;28;20041;-70
2022/03/24 07:41:59;;;;;;;113.53;51.25;;;6.00;99.90;;;;;;5047121;28;20037;-70
2022/03/24 07:44:25;;;;;;;116.85;51.50;;;6.20;99.90;;;;;;5046309;28;20045;-70
2022/03/24 07:46:51;;;;;;;111.68;52.70;;;6.40;99.90;;;;;;5048581;28;20119;-70
2022/03/24 07:49:16;;;;;;;114.13;51.63;;;6.50;99.90;;;;;;5047157;28;20071;-70
2022/03/24 07:51:43;;;;;;;118.10;51.72;;;6.70;99.90;;;;;;5046419;28;20064;-70
2022/03/24 07:54:10;;;;;;;115.35;51.55;;;6.90;99.90;;;;;;5050857;28;20037;-70
2022/03/24 07:56:37;;;;;;;113.20;50.97;;;7.00;99.90;;;;;;5049927;28;20052;-70
2022/03/24 07:59:05;;;;;;;107.68;49.75;;;7.20;99.90;;;;;;5047432;28;20040;-70
2022/03/24 08:01:32;;;;;;;121.55;51.65;;;7.30;99.90;;;;;;5045783;28;20096;-71
2022/03/24 08:04:03;;;;;;;119.88;52.58;;;7.40;99.90;;;;;;5050830;28;20047;-70
2022/03/24 08:06:30;;;;;;;110.80;46.47;;;7.60;99.90;;;;;;5051707;28;20053;-70
2022/03/24 08:08:56;;;;;;;115.35;50.55;;;7.80;99.90;;;;;;5051751;28;20041;-70
2022/03/24 08:11:25;;;;;;;116.40;51.80;;;8.00;99.90;;;;;;5046851;28;20384;-70
2022/03/24 08:13:53;;;;;;;123.30;53.70;;;8.10;99.90;;;;;;5047158;28;20032;-70
2022/03/24 08:16:24;;;;;;;126.15;53.42;;;8.20;99.90;;;;;;5048448;28;20389;-70
2022/03/24 08:18:50;;;;;;;129.98;54.20;;;8.40;99.90;;;;;;5044026;28;20535;-70
2022/03/24 08:21:16;;;;;;;130.30;54.28;;;8.50;99.90;;;;;;5042513;28;20127;-70
2022/03/24 08:23:41;;;;;;;135.52;56.80;;;8.60;99.90;;;;;;5053374;28;20383;-70
2022/03/24 08:26:07;;;;;;;130.10;53.63;;;8.80;99.90;;;;;;5049133;28;20130;-70
2022/03/24 08:28:33;;;;;;;134.85;55.63;;;9.00;99.90;;;;;;5047422;28;20044;-70
2022/03/24 08:30:59;;;;;;;137.75;56.65;;;9.10;99.90;;;;;;5047828;28;20044;-69
2022/03/24 08:33:24;;;;;;;136.80;55.53;;;9.20;99.90;;;;;;5049562;28;20068;-70
2022/03/24 08:35:50;;;;;;;130.05;53.25;;;9.40;99.90;;;;;;5044329;28;20060;-70
2022/03/24 08:38:15;;;;;;;129.45;51.90;;;9.50;99.90;;;;;;5036709;28;20099;-69
2022/03/24 08:40:41;;;;;;;133.57;52.03;;;9.70;99.90;;;;;;5031983;28;20044;-70
2022/03/24 08:43:07;;;;;;;137.73;53.45;;;9.90;99.90;;;;;;5029454;28;20069;-70
2022/03/24 08:45:35;;;;;;;140.02;55.47;;;10.10;99.90;;;;;;5032714;28;20037;-70
2022/03/24 08:48:00;;;;;;;145.80;55.67;;;10.30;99.90;;;;;;5047344;28;20438;-70
2022/03/24 08:50:26;;;;;;;143.48;54.13;;;10.40;99.90;;;;;;5048991;28;20033;-70
2022/03/24 08:52:51;;;;;;;139.30;53.95;;;10.60;99.90;;;;;;5047162;28;20525;-70
2022/03/24 08:55:17;;;;;;;141.15;53.83;;;10.70;99.90;;;;;;5045144;28;20040;-70
2022/03/24 08:57:44;;;;;;;139.82;54.90;;;10.90;99.90;;;;;;5050365;28;20045;-70
2022/03/24 09:00:13;;;;;;;140.52;56.00;;;11.00;99.90;;;;;;5053002;28;20079;-70
2022/03/24 09:02:40;;;;;;;146.43;56.13;;;11.10;99.90;;;;;;5053679;28;20376;-70
2022/03/24 09:05:06;;;;;;;147.05;57.08;;;11.30;99.90;;;;;;5043171;28;20038;-69
2022/03/24 09:07:32;;;;;;;134.18;51.03;;;11.40;99.90;;;;;;5061527;28;20036;-70
2022/03/24 09:09:58;;;;;;;145.57;53.50;;;11.60;99.90;;;;;;5037600;28;20115;-69
2022/03/24 09:12:24;;;;;;;145.13;56.72;;;11.80;99.90;;;;;;5053188;28;20049;-70
2022/03/24 09:14:50;;;;;;;145.30;56.35;;;12.00;99.90;;;;;;5037689;28;20458;-70
2022/03/24 09:17:15;;;;;;;142.07;54.58;;;12.10;99.90;;;;;;5033559;28;20049;-69
2022/03/24 09:19:41;;;;;;;138.63;52.83;;;12.30;99.90;;;;;;5027749;28;20047;-70
2022/03/24 09:22:06;;;;;;;138.25;53.63;;;12.50;99.90;;;;;;5052151;28;20102;-69
2022/03/24 09:24:33;;;;;;;137.70;53.70;;;12.60;99.90;;;;;;5053878;28;20441;-69
2022/03/24 09:27:02;;;;;;;134.02;52.25;;;12.70;99.90;;;;;;5053027;28;20037;-69
2022/03/24 09:29:28;;;;;;;136.38;49.78;;;12.80;99.90;;;;;;5052219;28;20503;-70
2022/03/24 09:31:53;;;;;;;129.65;44.97;;;13.00;99.90;;;;;;5052360;28;20041;-70
2022/03/24 09:34:19;;;;;;;128.73;50.75;;;13.20;99.90;;;;;;5035773;28;20090;-70
2022/03/24 09:36:45;;;;;;;133.05;50.78;;;13.30;99.90;;;;;;5051477;28;20044;-69
2022/03/24 09:39:11;;;;;;;135.48;50.70;;;13.50;99.90;;;;;;5063054;28;20041;-70
2022/03/24 09:41:37;;;;;;;133.75;50.05;;;13.60;99.90;;;;;;5032613;28;20723;-70
2022/03/24 09:44:04;;;;;;;126.72;48.85;;;13.70;99.90;;;;;;5063122;28;20056;-69
2022/03/24 09:46:31;;;;;;;133.15;50.58;;;13.80;99.90;;;;;;5053325;28;20060;-70
2022/03/24 09:48:58;;;;;;;134.70;50.42;;;14.00;99.90;;;;;;5049367;28;20029;-69
2022/03/24 09:51:25;;;;;;;127.45;49.33;;;14.10;99.90;;;;;;5050435;28;20037;-69
2022/03/24 09:53:50;;;;;;;131.18;50.60;;;14.20;99.90;;;;;;5040246;28;20124;-69
2022/03/24 09:56:17;;;;;;;133.02;51.63;;;14.40;99.90;;;;;;5050421;28;20127;-70
2022/03/24 09:58:44;;;;;;;125.05;49.15;;;14.40;99.90;;;;;;5049682;28;20496;-69
2022/03/24 10:01:13;;;;;;;124.18;48.30;;;14.60;99.90;;;;;;5049912;28;20047;-69
2022/03/24 10:03:39;;;;;;;122.68;48.05;;;14.70;99.40;;;;;;5054268;28;20079;-69
2022/03/24 10:06:10;;;;;;;124.53;49.25;;;14.70;99.70;;;;;;5060469;28;20037;-68
2022/03/24 10:08:36;;;;;;;132.07;44.53;;;14.80;99.90;;;;;;5065542;28;20487;-69
2022/03/24 10:11:08;;;;;;;120.70;44.97;;;14.90;99.90;;;;;;5050643;28;20044;-69
2022/03/24 10:13:49;;;;;;;111.97;44.50;;;15.00;99.00;;;;;;5050864;28;20060;-69
2022/03/24 10:16:35;;;;;;;111.15;43.30;;;15.10;99.90;;;;;;5051142;28;20076;-69
2022/03/24 10:19:08;;;;;;;122.07;45.03;;;15.20;99.90;;;;;;5050694;28;20055;-68
2022/03/24 10:21:36;;;;;;;117.38;47.25;;;15.30;96.40;;;;;;5046673;28;20140;-68
2022/03/24 10:24:21;;;;;;;114.35;43.97;;;15.40;99.90;;;;;;5047849;28;20041;-68
2022/03/24 10:27:02;;;;;;;105.00;40.40;;;15.50;98.80;;;;;;5034384;28;20415;-69
2022/03/24 10:29:28;;;;;;;118.57;44.85;;;15.60;87.20;;;;;;5052563;28;20053;-69
2022/03/24 10:32:00;;;;;;;110.97;43.67;;;15.70;88.90;;;;;;5049477;28;20049;-69
2022/03/24 10:34:32;;;;;;;98.78;39.20;;;15.80;90.10;;;;;;5048133;28;20052;-69
2022/03/24 10:37:09;;;;;;;100.50;39.87;;;15.80;78.90;;;;;;5049137;28;20118;-68
2022/03/24 10:39:36;;;;;;;95.82;40.17;;;15.90;83.20;;;;;;5063716;28;20059;-69
2022/03/24 10:42:17;;;;;;;101.10;38.13;;;16.00;89.20;;;;;;5050150;28;20047;-68
2022/03/24 10:45:21;;;;;;;99.78;38.60;;;16.10;71.50;;;;;;5049450;28;20047;-68
2022/03/24 10:48:02;;;;;;;88.95;36.60;;;16.20;76.70;;;;;;5061410;28;20114;-69
2022/03/24 10:50:28;;;;;;;80.82;33.63;;;16.30;73.90;;;;;;5033471;28;20032;-69
2022/03/24 10:52:56;;;;;;;66.60;26.83;;;16.40;65.10;;;;;;5050750;28;20376;-68
2022/03/24 10:55:52;;;;;;;66.45;27.95;;;16.50;55.30;;;;;;5060716;28;20047;-68
2022/03/24 10:58:51;;;;;;;73.90;30.50;;;16.50;54.00;;;;;;5020897;28;20428;-68
2022/03/24 11:01:21;;;;;;;84.32;33.70;;;16.60;56.00;;;;;;5044576;28;20056;-68
2022/03/24 11:03:47;;;;;;;86.75;34.85;;;16.70;52.90;;;;;;5059571;28;20064;-68
2022/03/24 11:06:14;;;;;;;76.18;29.90;;;16.70;56.10;;;;;;5056795;28;20094;-68
2022/03/24 11:08:42;;;;;;;77.43;30.60;;;16.80;52.40;;;;;;5067387;28;20065;-68
2022/03/24 11:11:12;;;;;;;68.38;28.05;;;16.80;52.40;;;;;;5063694;28;20093;-68
2022/03/24 11:14:02;;;;;;;59.65;25.30;;;16.90;50.60;;;;;;5043272;28;20076;-68
2022/03/24 11:16:30;;;;;;;69.57;26.33;;;16.90;49.00;;;;;;5061967;28;20059;-68
2022/03/24 11:18:57;;;;;;;51.72;23.08;;;17.00;50.00;;;;;;5071559;28;20063;-67
2022/03/24 11:21:43;;;;;;;59.28;23.17;;;17.00;49.40;;;;;;5071257;28;20074;-68
2022/03/24 11:24:09;;;;;;;62.92;22.77;;;17.00;50.00;;;;;;5070934;28;20033;-68
2022/03/24 11:26:35;;;;;;;62.58;25.33;;;17.10;50.50;;;;;;5068183;28;20574;-68
2022/03/24 11:29:02;;;;;;;62.20;25.95;;;17.20;48.60;;;;;;5045402;28;20369;-68
2022/03/24 11:31:31;;;;;;;60.72;25.95;;;17.20;49.10;;;;;;5047873;28;20056;-68
2022/03/24 11:34:00;;;;;;;75.75;28.23;;;17.30;50.80;;;;;;5058341;28;20045;-67
2022/03/24 11:36:27;;;;;;;65.88;28.20;;;17.30;49.00;;;;;;5049301;28;20045;-68
2022/03/24 11:38:56;;;;;;;71.35;28.02;;;17.30;51.10;;;;;;5032496;28;20494;-68
2022/03/24 11:41:35;;;;;;;53.45;21.40;;;17.40;52.20;;;;;;5066087;28;20044;-70
2022/03/24 11:44:12;;;;;;;60.30;25.52;;;17.50;50.60;;;;;;5047896;28;20488;-68
2022/03/24 11:46:59;;;;;;;57.08;24.40;;;17.50;50.10;;;;;;5050545;28;20049;-68
2022/03/24 11:49:27;;;;;;;58.28;24.38;;;17.50;49.70;;;;;;5047549;28;20555;-69
2022/03/24 11:51:58;;;;;;;56.42;23.40;;;17.50;49.10;;;;;;5050750;28;20048;-69
2022/03/24 11:54:28;;;;;;;52.47;22.37;;;17.50;50.90;;;;;;5050543;28;20045;-70
2022/03/24 11:57:21;;;;;;;52.60;23.15;;;17.60;50.20;;;;;;5050361;28;20291;-69
2022/03/24 11:59:49;;;;;;;57.00;22.55;;;17.60;49.00;;;;;;5039296;28;20055;-68
2022/03/24 12:02:19;;;;;;;53.10;23.13;;;17.70;48.20;;;;;;5057655;28;20725;-68
2022/03/24 12:04:50;;;;;;;53.38;22.48;;;17.70;47.80;;;;;;5041267;28;20121;-69
2022/03/24 12:07:18;;;;;;;51.13;23.05;;;17.70;49.90;;;;;;5053672;28;20484;-68
2022/03/24 12:10:07;;;;;;;55.75;24.55;;;17.80;50.10;;;;;;5055305;28;20314;-68
2022/03/24 12:12:32;;;;;;;56.40;22.50;;;17.80;50.10;;;;;;5053874;28;20049;-68
2022/03/24 12:15:07;;;;;;;55.80;22.95;;;17.90;50.00;;;;;;5049539;28;20052;-69
2022/03/24 12:17:34;;;;;;;52.58;22.63;;;18.00;49.50;;;;;;5047452;28;20044;-68
2022/03/24 12:20:20;;;;;;;49.53;23.05;;;18.00;49.60;;;;;;5047511;28;20551;-68
2022/03/24 12:22:46;;;;;;;50.90;23.25;;;18.00;49.30;;;;;;5049675;28;20395;-67
2022/03/24 12:25:14;;;;;;;51.28;22.00;;;18.10;49.30;;;;;;5048148;28;20487;-68
2022/03/24 12:28:06;;;;;;;47.03;21.50;;;18.10;50.30;;;;;;5048979;28;20033;-67
2022/03/24 12:30:49;;;;;;;50.00;21.52;;;18.30;49.40;;;;;;5049580;28;20044;-68
2022/03/24 12:33:17;;;;;;;39.13;16.25;;;18.30;50.60;;;;;;5048206;28;20120;-68
2022/03/24 12:35:49;;;;;;;37.22;18.75;;;18.40;50.50;;;;;;5049106;28;20040;-67
2022/03/24 12:38:34;;;;;;;39.95;18.20;;;18.40;50.80;;;;;;5048529;28;20037;-70
2022/03/24 12:41:05;;;;;;;35.42;15.98;;;18.50;50.60;;;;;;5045918;28;20041;-70